Terminal Aerodrome Forecast
Issued by NWS Twin Cities, MN

Home | Current Version | Previous Version | Text Only | Print | Product List | Glossary Off
Versions: 1 2 3 4 5 6 7 8 9 10 11 12

446
FTUS43 KMPX 211720
TAFSTC
TAF
KSTC 211720Z 2118/2218 02006KT P6SM SCT040
     FM220100 VRB02KT P6SM SKC
     FM221300 25003KT P6SM SKC=

USA.gov is the U.S. government's official web portal to all federal, state and local government web resources and services.